Time;durP1;ratioP1;P1;durP2;ratioP2;P2;SDS_P1;SDS_P2;PMS_P1;PMS_P2;Temp;Humidity;BMP_temperature;BMP_pressure;BME280_temperature;BME280_humidity;BME280_pressure;Samples;Min_cycle;Max_cycle;Signal;HPM_P1;HPM_P2
2022/07/28 00:00:20;;;;;;;3.60;1.20;;;24.40;39.00;;;;;;7389200;19;19952;-79
2022/07/28 00:02:49;;;;;;;3.80;1.10;;;24.30;39.60;;;;;;7367590;19;20434;-80
2022/07/28 00:05:18;;;;;;;2.10;1.10;;;24.30;39.20;;;;;;7367455;19;20594;-79
2022/07/28 00:07:46;;;;;;;1.83;1.10;;;24.20;39.20;;;;;;7368990;19;20035;-80
2022/07/28 00:10:16;;;;;;;2.72;0.98;;;24.30;39.40;;;;;;7366184;19;20026;-80
2022/07/28 00:12:48;;;;;;;4.88;1.00;;;24.30;39.30;;;;;;7368093;19;20022;-80
2022/07/28 00:15:17;;;;;;;3.72;1.10;;;24.30;39.30;;;;;;7388626;19;20018;-80
2022/07/28 00:17:45;;;;;;;3.42;1.05;;;24.30;39.20;;;;;;7365612;19;20028;-79
2022/07/28 00:20:14;;;;;;;3.10;1.00;;;24.30;39.30;;;;;;7366328;19;20523;-79
2022/07/28 00:22:44;;;;;;;2.58;0.90;;;24.30;39.30;;;;;;7368337;19;20032;-79
2022/07/28 00:25:14;;;;;;;2.53;1.10;;;24.20;39.30;;;;;;7367592;19;20042;-79
2022/07/28 00:27:42;;;;;;;4.75;1.10;;;24.20;39.30;;;;;;7389551;19;20026;-80
2022/07/28 00:30:15;;;;;;;2.92;1.20;;;24.20;39.40;;;;;;7367200;19;20035;-80
2022/07/28 00:32:43;;;;;;;3.03;1.00;;;24.10;39.30;;;;;;7366429;19;20782;-79
2022/07/28 00:35:12;;;;;;;3.70;0.95;;;24.10;39.40;;;;;;7366980;19;20015;-79
2022/07/28 00:37:41;;;;;;;2.42;0.82;;;24.10;39.40;;;;;;7369397;19;20095;-79
2022/07/28 00:40:11;;;;;;;4.20;0.93;;;24.10;39.50;;;;;;7367410;19;20379;-79
2022/07/28 00:42:40;;;;;;;3.92;0.90;;;24.10;39.60;;;;;;7386242;19;20018;-78
2022/07/28 00:45:10;;;;;;;2.92;1.02;;;24.10;39.50;;;;;;7367152;19;20033;-79
2022/07/28 00:47:41;;;;;;;1.90;0.90;;;24.10;39.70;;;;;;7368099;19;20183;-79
2022/07/28 00:50:10;;;;;;;;;;;24.10;39.70;;;;;;7368359;19;20432;-79
2022/07/28 00:52:39;;;;;;;2.33;0.90;;;24.10;39.60;;;;;;7368072;19;19919;-80
2022/07/28 00:55:08;;;;;;;2.25;0.80;;;24.10;39.70;;;;;;7367539;19;20094;-79
2022/07/28 00:57:37;;;;;;;1.90;0.80;;;24.00;39.70;;;;;;7389780;19;20027;-80
2022/07/28 01:00:06;;;;;;;3.70;1.92;;;24.10;40.40;;;;;;7366044;19;20738;-78
2022/07/28 01:02:35;;;;;;;3.70;2.10;;;24.00;39.80;;;;;;7368420;19;20047;-80
2022/07/28 01:05:07;;;;;;;5.40;1.20;;;24.00;39.90;;;;;;7366958;19;20461;-79
2022/07/28 01:07:44;;;;;;;2.70;0.90;;;24.00;39.80;;;;;;7365036;19;20443;-80
2022/07/28 01:10:21;;;;;;;2.45;0.98;;;23.50;40.40;;;;;;7363524;19;20334;-80
2022/07/28 01:12:57;;;;;;;2.85;1.00;;;23.30;40.70;;;;;;7365842;19;20392;-79
2022/07/28 01:15:32;;;;;;;2.22;1.02;;;23.80;40.40;;;;;;7390995;19;20026;-80
2022/07/28 01:18:06;;;;;;;1.67;1.00;;;24.00;40.20;;;;;;7371740;19;20042;-79
2022/07/28 01:20:42;;;;;;;4.35;1.08;;;24.00;40.00;;;;;;7372969;19;20098;-79
2022/07/28 01:23:44;;;;;;;3.15;1.17;;;24.00;40.00;;;;;;7374336;19;20183;-79
2022/07/28 01:26:35;;;;;;;5.40;1.08;;;24.10;40.10;;;;;;7374777;19;20348;-80
2022/07/28 01:29:09;;;;;;;;;;;24.10;40.10;;;;;;7373151;19;20077;-80
2022/07/28 01:31:44;;;;;;;5.78;1.15;;;24.20;40.50;;;;;;7372976;19;19958;-80
2022/07/28 01:34:18;;;;;;;6.47;2.30;;;24.00;40.70;;;;;;7371558;19;20434;-80
2022/07/28 01:36:53;;;;;;;6.15;3.28;;;24.00;40.80;;;;;;7375153;19;20705;-79
2022/07/28 01:39:26;;;;;;;6.82;3.40;;;23.90;41.00;;;;;;7389637;19;20086;-79
2022/07/28 01:41:57;;;;;;;1.77;1.10;;;23.90;41.10;;;;;;7369787;19;20082;-79
2022/07/28 01:44:29;;;;;;;1.65;0.93;;;23.80;41.40;;;;;;7372457;19;20406;-79
2022/07/28 01:47:06;;;;;;;2.05;0.93;;;23.70;41.60;;;;;;7370914;19;20014;-79
2022/07/28 01:49:37;;;;;;;5.03;1.35;;;23.70;41.80;;;;;;7371520;19;20713;-80
2022/07/28 01:52:09;;;;;;;1.58;0.88;;;23.60;41.70;;;;;;7371519;19;20014;-80
2022/07/28 01:54:43;;;;;;;2.60;1.13;;;23.60;41.80;;;;;;7394993;19;20499;-80
2022/07/28 01:57:15;;;;;;;2.72;1.13;;;23.60;42.10;;;;;;7373116;19;20033;-80
2022/07/28 01:59:45;;;;;;;3.00;1.17;;;23.50;42.10;;;;;;7371030;19;20018;-80
2022/07/28 02:02:19;;;;;;;3.08;0.90;;;23.50;42.00;;;;;;7368166;19;20554;-80
2022/07/28 02:04:50;;;;;;;1.40;0.90;;;23.50;42.10;;;;;;7372187;19;20086;-80
2022/07/28 02:07:22;;;;;;;2.63;0.82;;;23.50;42.40;;;;;;7373126;19;20067;-81
2022/07/28 02:09:52;;;;;;;1.77;0.77;;;23.20;42.20;;;;;;7371967;19;20029;-80
2022/07/28 02:12:22;;;;;;;1.90;1.00;;;23.10;42.80;;;;;;7393489;19;20533;-80
2022/07/28 02:14:53;;;;;;;1.00;0.80;;;23.00;43.00;;;;;;7372473;19;20082;-80
2022/07/28 02:17:29;;;;;;;4.70;1.00;;;23.00;43.20;;;;;;7370179;19;20032;-79
2022/07/28 02:19:59;;;;;;;2.45;0.90;;;23.00;43.30;;;;;;7370653;19;20029;-79
2022/07/28 02:22:29;;;;;;;6.25;0.90;;;23.00;43.30;;;;;;7371310;19;20085;-79
2022/07/28 02:24:58;;;;;;;4.32;1.25;;;23.00;43.10;;;;;;7373961;19;20022;-79
2022/07/28 02:27:35;;;;;;;3.92;1.10;;;22.90;43.20;;;;;;7392968;19;20023;-80
2022/07/28 02:30:09;;;;;;;4.18;1.10;;;22.90;43.40;;;;;;7371610;19;20124;-79
2022/07/28 02:32:47;;;;;;;3.08;1.02;;;22.90;43.50;;;;;;7370750;19;20094;-79
2022/07/28 02:35:24;;;;;;;3.80;1.00;;;22.90;43.50;;;;;;7371001;19;20026;-79
2022/07/28 02:37:58;;;;;;;4.15;0.90;;;23.00;43.30;;;;;;7371744;19;20361;-80
2022/07/28 02:40:34;;;;;;;1.45;1.00;;;23.00;43.50;;;;;;7369187;19;20015;-79
2022/07/28 02:43:04;;;;;;;2.45;1.40;;;23.00;43.40;;;;;;7371109;19;20095;-79
2022/07/28 02:45:35;;;;;;;3.08;1.20;;;23.00;44.00;;;;;;7392208;19;20020;-79
2022/07/28 02:48:12;;;;;;;4.18;1.20;;;23.00;43.80;;;;;;7370317;19;20313;-79
2022/07/28 02:50:42;;;;;;;4.90;1.17;;;23.00;43.60;;;;;;7370210;19;20090;-79
2022/07/28 02:53:13;;;;;;;4.30;1.15;;;23.00;43.60;;;;;;7369906;19;20018;-80
2022/07/28 02:55:42;;;;;;;2.03;1.05;;;22.90;43.50;;;;;;7369932;19;20021;-80
2022/07/28 02:58:12;;;;;;;2.03;1.10;;;22.90;43.80;;;;;;7370351;19;20010;-80
2022/07/28 03:00:42;;;;;;;1.60;1.10;;;22.90;44.20;;;;;;7392278;19;20022;-80
2022/07/28 03:03:14;;;;;;;4.30;1.10;;;23.00;44.30;;;;;;7366798;19;20078;-80
2022/07/28 03:05:43;;;;;;;3.17;1.08;;;23.00;44.50;;;;;;7370827;19;20010;-80
2022/07/28 03:08:12;;;;;;;;;;;23.00;44.50;;;;;;7370837;19;20086;-80
2022/07/28 03:10:40;;;;;;;;;;;23.00;44.70;;;;;;7369754;19;19937;-80
2022/07/28 03:13:09;;;;;;;;;;;23.10;44.70;;;;;;7372266;19;20002;-79
2022/07/28 03:15:38;;;;;;;;;;;23.10;44.50;;;;;;7391683;19;20252;-79
2022/07/28 03:18:08;;;;;;;;;;;23.10;44.50;;;;;;7369439;19;19934;-79
2022/07/28 03:20:39;;;;;;;;;;;23.10;44.40;;;;;;7370152;19;19986;-80
2022/07/28 03:23:09;;;;;;;;;;;23.00;44.50;;;;;;7372167;19;20596;-80
2022/07/28 03:25:41;;;;;;;;;;;23.00;44.70;;;;;;7380861;19;20449;-80
2022/07/28 03:28:12;;;;;;;;;;;23.00;44.70;;;;;;7378996;19;19932;-80
2022/07/28 03:30:43;;;;;;;;;;;23.00;44.70;;;;;;7398095;19;20263;-79
2022/07/28 03:33:11;;;;;;;;;;;22.90;44.80;;;;;;7373634;19;19917;-80
2022/07/28 03:35:45;;;;;;;;;;;22.90;45.00;;;;;;7372415;19;19918;-79
2022/07/28 03:38:15;;;;;;;;;;;22.80;45.00;;;;;;7369187;19;19946;-80
2022/07/28 03:40:44;;;;;;;;;;;22.80;45.30;;;;;;7371726;19;19926;-79
2022/07/28 03:43:12;;;;;;;;;;;22.70;45.50;;;;;;7369847;19;19918;-79
2022/07/28 03:45:41;;;;;;;;;;;22.80;45.70;;;;;;7393267;19;20307;-79
2022/07/28 03:48:10;;;;;;;;;;;22.70;46.10;;;;;;7370145;19;19929;-80
2022/07/28 03:50:38;;;;;;;;;;;22.70;46.30;;;;;;7370363;19;19939;-80
2022/07/28 03:53:12;;;;;;;;;;;22.70;46.50;;;;;;7371793;19;19914;-80
2022/07/28 03:55:40;;;;;;;;;;;22.70;46.60;;;;;;7369534;19;19951;-79
2022/07/28 03:58:09;;;;;;;;;;;22.70;46.30;;;;;;7366650;19;19922;-79
2022/07/28 04:00:37;;;;;;;;;;;22.70;46.00;;;;;;7390313;19;20451;-79
2022/07/28 04:03:06;;;;;;;;;;;22.70;46.00;;;;;;7367352;19;19915;-80
2022/07/28 04:05:34;;;;;;;2.92;1.20;;;22.70;46.20;;;;;;7368734;19;19926;-80
2022/07/28 04:08:03;;;;;;;6.90;1.80;;;22.60;46.10;;;;;;7368682;19;20044;-80
2022/07/28 04:10:34;;;;;;;4.57;1.30;;;22.60;46.30;;;;;;7367567;19;20866;-80
2022/07/28 04:13:03;;;;;;;4.05;1.50;;;22.00;47.00;;;;;;7367102;19;21005;-80
2022/07/28 04:15:32;;;;;;;3.63;1.40;;;21.80;48.10;;;;;;7388944;19;21141;-80
2022/07/28 04:18:02;;;;;;;4.28;1.70;;;21.70;48.40;;;;;;7366259;19;20352;-80
2022/07/28 04:20:30;;;;;;;5.03;1.50;;;21.70;48.20;;;;;;7365218;19;20348;-80
2022/07/28 04:22:59;;;;;;;3.67;1.50;;;21.60;48.60;;;;;;7365999;19;20363;-80
2022/07/28 04:25:29;;;;;;;4.35;1.27;;;21.70;48.20;;;;;;7367657;19;20343;-80
2022/07/28 04:28:08;;;;;;;5.32;1.50;;;21.70;48.90;;;;;;7366459;19;20455;-80
2022/07/28 04:30:36;;;;;;;5.20;1.55;;;21.70;48.80;;;;;;7391183;19;20915;-79
2022/07/28 04:33:05;;;;;;;5.90;1.70;;;21.70;48.30;;;;;;7369227;19;20367;-80
2022/07/28 04:35:35;;;;;;;5.47;1.60;;;21.70;47.70;;;;;;7370021;19;20356;-80
2022/07/28 04:38:03;;;;;;;6.38;2.00;;;21.70;47.60;;;;;;7370937;19;20341;-80
2022/07/28 04:40:33;;;;;;;5.18;1.50;;;21.70;47.90;;;;;;7370734;19;20316;-79
2022/07/28 04:43:04;;;;;;;4.90;1.75;;;21.60;47.90;;;;;;7372110;19;20389;-80
2022/07/28 04:45:34;;;;;;;4.18;1.50;;;21.70;48.30;;;;;;7396071;19;20352;-79
2022/07/28 04:48:02;;;;;;;5.30;1.50;;;21.70;48.50;;;;;;7369767;19;20350;-79
2022/07/28 04:50:31;;;;;;;4.93;1.63;;;21.60;48.20;;;;;;7374257;19;20445;-79
2022/07/28 04:53:00;;;;;;;5.20;1.77;;;21.60;48.10;;;;;;7377927;19;20340;-79
2022/07/28 04:55:29;;;;;;;5.93;1.80;;;21.70;48.40;;;;;;7376403;19;20321;-80
2022/07/28 04:57:58;;;;;;;3.15;1.55;;;21.70;48.20;;;;;;7377819;19;20443;-80
2022/07/28 05:00:29;;;;;;;4.22;1.63;;;21.70;48.70;;;;;;7397338;19;20363;-80
2022/07/28 05:02:58;;;;;;;8.40;1.50;;;21.70;48.70;;;;;;7374696;19;20443;-80
2022/07/28 05:05:27;;;;;;;5.68;1.67;;;21.70;49.00;;;;;;7377143;19;20480;-79
2022/07/28 05:07:55;;;;;;;4.13;1.85;;;21.70;48.80;;;;;;7376163;19;20321;-79
2022/07/28 05:10:24;;;;;;;8.20;1.85;;;21.70;48.90;;;;;;7378291;19;20392;-80
2022/07/28 05:12:53;;;;;;;10.43;2.22;;;21.70;48.90;;;;;;7375023;19;20408;-79
2022/07/28 05:15:22;;;;;;;13.60;2.67;;;21.70;48.90;;;;;;7399417;19;20427;-80
2022/07/28 05:17:53;;;;;;;14.53;2.60;;;21.70;49.00;;;;;;7378810;19;20357;-80
2022/07/28 05:20:22;;;;;;;9.52;1.90;;;21.70;49.20;;;;;;7377020;19;20351;-80
2022/07/28 05:22:52;;;;;;;9.98;2.20;;;21.70;49.50;;;;;;7375898;19;20381;-80
2022/07/28 05:25:24;;;;;;;10.82;2.25;;;21.70;49.30;;;;;;7377997;19;20347;-79
2022/07/28 05:27:54;;;;;;;15.45;2.40;;;21.70;49.20;;;;;;7378053;19;21353;-80
2022/07/28 05:30:26;;;;;;;10.30;2.35;;;21.70;49.30;;;;;;7395467;19;20356;-80
2022/07/28 05:33:00;;;;;;;10.85;2.50;;;21.80;49.30;;;;;;7376050;19;20886;-80
2022/07/28 05:35:29;;;;;;;9.53;1.93;;;21.80;49.30;;;;;;7402368;19;20392;-81
2022/07/28 05:37:58;;;;;;;11.57;2.23;;;21.80;49.40;;;;;;7399418;19;20426;-80
2022/07/28 05:40:27;;;;;;;13.02;2.47;;;21.80;49.60;;;;;;7395671;19;20381;-79
2022/07/28 05:42:55;;;;;;;15.05;2.65;;;21.80;50.90;;;;;;7379585;19;20381;-80
2022/07/28 05:45:24;;;;;;;6.78;2.15;;;21.80;50.40;;;;;;7403344;19;20352;-80
2022/07/28 05:47:54;;;;;;;9.70;2.22;;;21.80;50.50;;;;;;7384051;19;20633;-80
2022/07/28 05:50:26;;;;;;;13.13;2.45;;;21.80;50.60;;;;;;7379245;19;20331;-80
2022/07/28 05:52:55;;;;;;;10.07;2.28;;;21.90;50.70;;;;;;7380277;19;20356;-80
2022/07/28 05:55:23;;;;;;;8.13;2.10;;;21.90;50.90;;;;;;7378932;19;20371;-79
2022/07/28 05:57:53;;;;;;;13.07;2.05;;;21.90;50.90;;;;;;7378507;19;20473;-79
2022/07/28 06:00:24;;;;;;;12.32;2.53;;;21.90;50.90;;;;;;7398774;19;20370;-79
2022/07/28 06:02:53;;;;;;;15.23;2.40;;;22.00;50.50;;;;;;7375595;19;20465;-80
2022/07/28 06:05:25;;;;;;;13.48;2.70;;;22.00;50.60;;;;;;7372515;19;20022;-79
2022/07/28 06:07:57;;;;;;;12.90;2.10;;;22.50;50.00;;;;;;7372049;19;20010;-80
2022/07/28 06:10:57;;;;;;;8.80;2.17;;;22.80;49.60;;;;;;7372170;19;20074;-80
2022/07/28 06:13:17;;;;;;;22.13;2.73;;;22.90;49.70;;;;;;7372331;19;20007;-80
2022/07/28 06:15:47;;;;;;;16.50;2.63;;;23.00;50.00;;;;;;7372549;19;20043;-80
2022/07/28 06:18:16;;;;;;;8.30;1.97;;;23.10;48.90;;;;;;7393833;19;20030;-80
2022/07/28 06:20:48;;;;;;;10.93;2.42;;;23.10;48.90;;;;;;7367135;19;20014;-80
2022/07/28 06:23:22;;;;;;;13.68;2.58;;;23.20;49.00;;;;;;7372084;19;20038;-80
2022/07/28 06:25:51;;;;;;;12.32;2.33;;;23.20;49.00;;;;;;7370039;19;20449;-79
2022/07/28 06:28:21;;;;;;;10.82;2.30;;;23.20;49.00;;;;;;7371763;19;20010;-79
2022/07/28 06:30:50;;;;;;;9.45;2.42;;;23.30;49.70;;;;;;7368718;19;20022;-79
2022/07/28 06:33:19;;;;;;;16.33;2.47;;;23.30;49.60;;;;;;7392899;19;20070;-79
2022/07/28 06:35:51;;;;;;;9.55;2.13;;;23.40;49.80;;;;;;7371054;19;20097;-79
2022/07/28 06:38:19;;;;;;;13.52;2.25;;;23.40;49.80;;;;;;7372936;19;20484;-79
2022/07/28 06:40:48;;;;;;;6.75;2.20;;;23.40;49.70;;;;;;7370461;19;20047;-78
2022/07/28 06:43:17;;;;;;;10.73;2.05;;;23.50;48.40;;;;;;7369898;19;20014;-78
2022/07/28 06:45:46;;;;;;;8.23;2.28;;;23.60;48.00;;;;;;7365590;19;20091;-79
2022/07/28 06:48:15;;;;;;;13.25;1.92;;;23.60;47.60;;;;;;7392883;19;20011;-79
2022/07/28 06:50:44;;;;;;;7.72;1.92;;;23.60;47.50;;;;;;7367797;19;20021;-79
2022/07/28 06:53:15;;;;;;;10.93;2.40;;;23.60;47.00;;;;;;7370422;19;20039;-78
2022/07/28 06:55:44;;;;;;;4.72;1.85;;;23.70;46.90;;;;;;7372299;19;20059;-78
2022/07/28 06:58:13;;;;;;;9.18;2.05;;;23.70;46.50;;;;;;7307328;19;20125;-77
2022/07/28 07:00:41;;;;;;;11.38;1.90;;;23.70;46.40;;;;;;7387916;19;20018;-78
2022/07/28 07:03:10;;;;;;;8.02;1.75;;;23.80;46.10;;;;;;7366183;19;20078;-77
2022/07/28 07:05:39;;;;;;;9.00;2.15;;;23.80;45.40;;;;;;7303758;19;20123;-77
2022/07/28 07:08:08;;;;;;;4.43;1.95;;;23.90;45.40;;;;;;7390220;19;20102;-78
2022/07/28 07:10:39;;;;;;;6.95;1.90;;;24.00;45.60;;;;;;7359830;19;20015;-79
2022/07/28 07:13:07;;;;;;;;;;;23.90;45.30;;;;;;7368645;19;20022;-78
2022/07/28 07:15:36;;;;;;;5.85;1.83;;;24.10;45.00;;;;;;7371167;19;19994;-76
2022/07/28 07:18:05;;;;;;;9.25;1.70;;;24.10;44.70;;;;;;7368408;19;20797;-76
2022/07/28 07:20:34;;;;;;;6.63;2.05;;;24.10;44.90;;;;;;7366456;19;20100;-76
2022/07/28 07:23:02;;;;;;;4.95;2.28;;;24.10;44.60;;;;;;7387023;19;20408;-75
2022/07/28 07:25:31;;;;;;;8.70;2.00;;;24.10;44.50;;;;;;7365837;19;20018;-75
2022/07/28 07:28:02;;;;;;;11.57;2.08;;;24.20;44.00;;;;;;7366221;19;20010;-76
2022/07/28 07:30:31;;;;;;;11.15;1.70;;;24.20;43.70;;;;;;7369131;19;20117;-76
2022/07/28 07:33:00;;;;;;;12.13;2.03;;;24.30;44.50;;;;;;7369884;19;20030;-76
2022/07/28 07:35:29;;;;;;;5.47;2.38;;;24.30;43.90;;;;;;7371092;19;20101;-77
2022/07/28 07:37:58;;;;;;;9.38;2.03;;;24.30;43.30;;;;;;7388968;19;20018;-76
2022/07/28 07:40:26;;;;;;;13.30;2.53;;;24.30;43.20;;;;;;7368309;19;20071;-77
2022/07/28 07:42:55;;;;;;;17.38;2.42;;;24.40;43.50;;;;;;7367155;19;20032;-76
2022/07/28 07:45:26;;;;;;;6.63;1.77;;;24.40;43.70;;;;;;7366970;19;20373;-76
2022/07/28 07:47:55;;;;;;;8.48;2.00;;;24.40;43.50;;;;;;7368060;19;20015;-77
2022/07/28 07:50:24;;;;;;;5.07;2.30;;;24.50;43.10;;;;;;7391675;19;20051;-76
2022/07/28 07:52:53;;;;;;;8.48;2.08;;;24.60;43.10;;;;;;7369538;19;20490;-77
2022/07/28 07:55:22;;;;;;;7.47;1.83;;;24.60;42.80;;;;;;7366962;19;20385;-77
2022/07/28 07:57:54;;;;;;;8.45;2.00;;;24.70;42.60;;;;;;7366879;19;20082;-76
2022/07/28 08:00:23;;;;;;;11.50;1.90;;;24.70;42.50;;;;;;7366456;19;20789;-76
2022/07/28 08:02:54;;;;;;;10.02;2.40;;;24.70;42.10;;;;;;7366823;19;20596;-76
2022/07/28 08:05:23;;;;;;;8.43;2.00;;;24.80;42.40;;;;;;7389708;19;20326;-76
2022/07/28 08:07:51;;;;;;;10.80;2.10;;;24.90;42.50;;;;;;7367186;19;20106;-76
2022/07/28 08:10:20;;;;;;;12.57;2.55;;;24.90;42.70;;;;;;7365954;19;20064;-76
2022/07/28 08:12:49;;;;;;;4.13;1.73;;;25.10;42.70;;;;;;7367989;19;20077;-76
2022/07/28 08:15:18;;;;;;;9.88;1.95;;;25.10;42.90;;;;;;7367755;19;20014;-76
2022/07/28 08:17:46;;;;;;;7.75;1.90;;;25.20;42.00;;;;;;7367208;19;20032;-75
2022/07/28 08:20:18;;;;;;;9.43;2.33;;;25.30;41.80;;;;;;7391096;19;20021;-75
2022/07/28 08:22:50;;;;;;;12.15;2.30;;;25.20;41.40;;;;;;7367330;19;20015;-76
2022/07/28 08:25:20;;;;;;;8.18;2.28;;;25.20;41.80;;;;;;7374785;19;20021;-76
2022/07/28 08:27:49;;;;;;;16.80;2.33;;;25.20;42.00;;;;;;7376133;19;20014;-77
2022/07/28 08:30:19;;;;;;;7.38;2.05;;;25.10;41.80;;;;;;7372733;19;20082;-76
2022/07/28 08:32:49;;;;;;;13.80;2.10;;;25.10;41.80;;;;;;7374488;19;20031;-76
2022/07/28 08:35:20;;;;;;;17.90;2.60;;;25.10;42.20;;;;;;7392956;19;20093;-75
2022/07/28 08:37:49;;;;;;;;;;;25.10;42.50;;;;;;7377158;19;20082;-76
2022/07/28 08:40:17;;;;;;;6.70;1.73;;;25.30;42.60;;;;;;7373451;19;19974;-76
2022/07/28 08:42:57;;;;;;;12.27;1.90;;;25.40;42.30;;;;;;7376292;19;20402;-76
2022/07/28 08:45:29;;;;;;;12.43;2.03;;;25.40;41.90;;;;;;7373033;19;20026;-76
2022/07/28 08:47:58;;;;;;;12.75;2.63;;;25.60;41.50;;;;;;7375603;19;20015;-75
2022/07/28 08:50:32;;;;;;;8.15;2.05;;;25.40;41.90;;;;;;7393379;19;20022;-76
2022/07/28 08:53:02;;;;;;;15.18;2.92;;;25.50;42.00;;;;;;7396120;19;20510;-76
2022/07/28 08:55:31;;;;;;;20.13;2.40;;;25.50;41.50;;;;;;7373496;19;20133;-75
2022/07/28 08:58:01;;;;;;;11.02;2.38;;;25.50;41.30;;;;;;7372639;19;20027;-75
2022/07/28 09:00:30;;;;;;;9.13;2.25;;;25.30;41.30;;;;;;7374823;19;20085;-75
2022/07/28 09:03:01;;;;;;;10.75;2.63;;;25.40;41.80;;;;;;7374719;19;20085;-75
2022/07/28 09:05:34;;;;;;;15.13;2.22;;;25.30;41.60;;;;;;7372484;19;20027;-75
2022/07/28 09:08:03;;;;;;;11.15;2.28;;;25.30;42.20;;;;;;7385905;19;20023;-77
2022/07/28 09:10:32;;;;;;;10.63;2.30;;;25.40;41.50;;;;;;7373232;19;20026;-77
2022/07/28 09:13:01;;;;;;;8.70;1.90;;;25.40;41.10;;;;;;7372160;19;20014;-77
2022/07/28 09:15:31;;;;;;;14.63;2.30;;;25.40;40.60;;;;;;7373472;19;20101;-76
2022/07/28 09:18:00;;;;;;;8.57;2.25;;;25.30;40.00;;;;;;7372993;19;21085;-76
2022/07/28 09:20:32;;;;;;;9.38;2.17;;;24.80;40.30;;;;;;7371445;19;20361;-76
2022/07/28 09:23:03;;;;;;;9.07;2.28;;;24.60;40.50;;;;;;7396223;19;20603;-75
2022/07/28 09:25:32;;;;;;;7.00;1.90;;;25.10;40.90;;;;;;7373377;19;20497;-76
2022/07/28 09:28:08;;;;;;;13.93;2.35;;;25.30;40.70;;;;;;7371939;19;20098;-76
2022/07/28 09:30:40;;;;;;;12.52;2.17;;;25.30;40.00;;;;;;7371244;19;20421;-77
2022/07/28 09:33:15;;;;;;;;;;;25.40;39.90;;;;;;7372220;19;20018;-76
2022/07/28 09:35:52;;;;;;;5.80;2.17;;;25.60;40.10;;;;;;7370243;19;19922;-76
2022/07/28 09:38:23;;;;;;;10.85;2.03;;;25.70;40.10;;;;;;7394444;19;20105;-76
2022/07/28 09:41:00;;;;;;;7.82;2.08;;;25.80;39.70;;;;;;7370964;19;20021;-76
2022/07/28 09:43:36;;;;;;;15.98;2.22;;;25.80;40.30;;;;;;7372769;19;20022;-77
2022/07/28 09:46:07;;;;;;;6.05;1.83;;;25.90;40.00;;;;;;7371640;19;20052;-76
2022/07/28 09:48:37;;;;;;;3.78;1.70;;;25.90;39.00;;;;;;7372493;19;20019;-76
2022/07/28 09:51:15;;;;;;;5.40;1.67;;;26.10;38.50;;;;;;7367407;19;20598;-76
2022/07/28 09:53:45;;;;;;;11.43;2.10;;;26.10;37.70;;;;;;7350915;19;20010;-77
2022/07/28 09:56:14;;;;;;;9.40;2.30;;;26.10;37.70;;;;;;7393005;19;20026;-76
2022/07/28 09:58:53;;;;;;;7.40;1.80;;;25.90;38.10;;;;;;7370813;19;20384;-76
2022/07/28 10:01:23;;;;;;;10.77;2.10;;;26.00;38.20;;;;;;7372889;19;20014;-76
2022/07/28 10:03:58;;;;;;;3.42;1.60;;;26.00;37.90;;;;;;7372542;19;20010;-76
2022/07/28 10:06:33;;;;;;;6.47;1.63;;;25.90;38.20;;;;;;7372507;19;20011;-76
2022/07/28 10:09:04;;;;;;;8.45;1.65;;;25.80;38.00;;;;;;7368938;19;20590;-76
2022/07/28 10:11:32;;;;;;;;;;;25.90;36.90;;;;;;7374025;19;20035;-76
2022/07/28 10:14:03;;;;;;;3.92;1.20;;;26.10;36.80;;;;;;7391270;19;20501;-76
2022/07/28 10:16:33;;;;;;;4.80;1.55;;;26.10;36.20;;;;;;7371585;19;20014;-76
2022/07/28 10:19:03;;;;;;;9.60;1.70;;;26.10;36.50;;;;;;7371196;19;20129;-76
2022/07/28 10:21:38;;;;;;;7.03;1.50;;;26.10;36.90;;;;;;7372656;19;20010;-76
2022/07/28 10:24:09;;;;;;;9.52;1.30;;;26.20;36.80;;;;;;7368511;19;20018;-76
2022/07/28 10:26:40;;;;;;;5.15;1.35;;;26.30;36.40;;;;;;7371286;19;20036;-75
2022/07/28 10:29:14;;;;;;;10.55;1.40;;;26.20;35.30;;;;;;7392097;19;20082;-75
2022/07/28 10:31:50;;;;;;;4.00;1.15;;;26.30;35.50;;;;;;7368776;19;20031;-75
2022/07/28 10:34:23;;;;;;;7.85;1.20;;;26.30;35.30;;;;;;7372481;19;20769;-75
2022/07/28 10:36:56;;;;;;;8.32;1.35;;;26.40;35.30;;;;;;7371637;19;20024;-75
2022/07/28 10:39:27;;;;;;;1.83;1.25;;;26.40;35.70;;;;;;7370440;19;20011;-76
2022/07/28 10:41:57;;;;;;;3.38;1.17;;;26.60;36.10;;;;;;7369783;19;20022;-76
2022/07/28 10:44:27;;;;;;;2.80;1.30;;;26.60;36.00;;;;;;7390416;19;20025;-76
2022/07/28 10:46:56;;;;;;;1.65;1.00;;;26.60;35.50;;;;;;7370538;19;20078;-75
2022/07/28 10:49:26;;;;;;;3.80;1.20;;;26.60;36.50;;;;;;7369481;19;20035;-75
2022/07/28 10:51:58;;;;;;;6.50;3.97;;;26.80;35.90;;;;;;7371046;19;20019;-74
2022/07/28 10:54:29;;;;;;;6.28;1.50;;;26.90;35.00;;;;;;7371718;19;20079;-75
2022/07/28 10:56:59;;;;;;;2.65;1.20;;;27.00;34.80;;;;;;7370718;19;20033;-76
2022/07/28 10:59:58;;;;;;;3.55;1.25;;;27.20;33.50;;;;;;7380256;19;20022;-77
2022/07/28 11:02:49;;;;;;;6.78;1.40;;;27.30;34.10;;;;;;7392526;19;20078;-77
2022/07/28 11:05:32;;;;;;;5.45;1.55;;;27.40;34.10;;;;;;7369475;19;20018;-77
2022/07/28 11:08:06;;;;;;;6.45;1.00;;;27.40;33.60;;;;;;7371064;19;20192;-77
2022/07/28 11:10:47;;;;;;;4.10;1.13;;;27.50;33.20;;;;;;7367428;19;20047;-76
2022/07/28 11:13:30;;;;;;;4.65;1.10;;;27.40;32.70;;;;;;7369699;19;20492;-75
2022/07/28 11:16:19;;;;;;;4.80;1.30;;;27.40;33.70;;;;;;7367546;19;20715;-76
2022/07/28 11:19:07;;;;;;;3.80;1.10;;;27.30;32.60;;;;;;7369756;19;20012;-76
2022/07/28 11:21:36;;;;;;;2.33;1.33;;;27.40;33.50;;;;;;7369770;19;20025;-75
2022/07/28 11:24:08;;;;;;;5.40;1.60;;;27.40;33.70;;;;;;7370448;19;20031;-74
2022/07/28 11:26:38;;;;;;;6.63;1.23;;;27.40;33.70;;;;;;7367604;19;20116;-76
2022/07/28 11:29:21;;;;;;;2.63;1.13;;;27.50;34.00;;;;;;7391382;19;20617;-75
2022/07/28 11:32:00;;;;;;;6.20;1.63;;;27.50;33.60;;;;;;7368202;19;20085;-75
2022/07/28 11:34:29;;;;;;;4.57;1.20;;;27.60;32.80;;;;;;7367747;19;20627;-75
2022/07/28 11:37:08;;;;;;;2.63;1.00;;;27.60;33.10;;;;;;7366231;19;20014;-75
2022/07/28 11:39:41;;;;;;;5.40;1.15;;;27.70;33.50;;;;;;7370724;19;20540;-75
2022/07/28 11:42:25;;;;;;;7.13;1.45;;;27.80;33.70;;;;;;7370076;19;20014;-75
2022/07/28 11:44:55;;;;;;;2.22;1.25;;;27.90;32.80;;;;;;7367660;19;20019;-75
2022/07/28 11:47:27;;;;;;;3.65;1.10;;;28.00;32.70;;;;;;7388401;19;20387;-75
2022/07/28 11:50:15;;;;;;;4.15;1.10;;;28.10;32.30;;;;;;7369504;19;20018;-75
2022/07/28 11:52:54;;;;;;;2.38;1.05;;;28.20;32.40;;;;;;7366384;19;20029;-75
2022/07/28 11:55:26;;;;;;;5.32;1.20;;;28.40;32.30;;;;;;7368378;19;20027;-74
2022/07/28 11:57:55;;;;;;;3.25;1.42;;;28.50;31.80;;;;;;7367234;19;20014;-76
2022/07/28 12:00:25;;;;;;;6.40;1.35;;;28.50;31.70;;;;;;7365481;19;20040;-75
2022/07/28 12:02:53;;;;;;;6.60;1.42;;;28.50;31.90;;;;;;7369330;19;20014;-75
2022/07/28 12:05:23;;;;;;;4.88;1.38;;;28.40;32.00;;;;;;7387614;19;20022;-75
2022/07/28 12:07:54;;;;;;;9.48;1.83;;;28.30;32.00;;;;;;7368452;19;20022;-75
2022/07/28 12:10:34;;;;;;;4.53;1.30;;;28.20;32.20;;;;;;7364728;19;20061;-75
2022/07/28 12:13:06;;;;;;;4.32;1.27;;;28.20;32.10;;;;;;7368944;19;20113;-75
2022/07/28 12:15:36;;;;;;;7.82;1.63;;;28.20;32.20;;;;;;7368963;19;20014;-75
2022/07/28 12:18:05;;;;;;;2.90;1.23;;;28.10;32.80;;;;;;7367238;19;20022;-74
2022/07/28 12:20:34;;;;;;;5.00;1.73;;;28.30;32.60;;;;;;7367059;19;20077;-75
2022/07/28 12:23:05;;;;;;;2.75;1.10;;;28.50;32.30;;;;;;7391045;19;20291;-76
2022/07/28 12:25:44;;;;;;;;;;;28.60;31.50;;;;;;7366498;19;20499;-75
2022/07/28 12:28:22;;;;;;;4.82;1.23;;;28.80;31.50;;;;;;7367749;19;20352;-75
2022/07/28 12:30:52;;;;;;;5.75;1.40;;;28.90;32.30;;;;;;7364867;19;20691;-76
2022/07/28 12:33:23;;;;;;;12.85;1.60;;;28.90;31.40;;;;;;7367389;19;20058;-75
2022/07/28 12:35:54;;;;;;;3.08;1.25;;;28.90;31.50;;;;;;7364522;19;20014;-75
2022/07/28 12:38:24;;;;;;;7.47;1.50;;;28.80;31.80;;;;;;7389078;19;20388;-75
2022/07/28 12:40:56;;;;;;;7.82;1.55;;;28.70;32.40;;;;;;7368386;19;20038;-76
2022/07/28 12:43:28;;;;;;;3.00;1.27;;;28.70;32.20;;;;;;7364412;19;20018;-75
2022/07/28 12:45:57;;;;;;;12.68;1.50;;;28.70;32.00;;;;;;7366350;19;20037;-75
2022/07/28 12:48:26;;;;;;;4.07;1.52;;;28.60;32.60;;;;;;7368746;19;20174;-75
2022/07/28 12:50:55;;;;;;;6.22;1.73;;;28.60;32.90;;;;;;7367326;19;20038;-75
2022/07/28 12:53:24;;;;;;;10.30;1.58;;;28.60;32.70;;;;;;7388616;19;20022;-75
2022/07/28 12:56:09;;;;;;;10.85;1.63;;;28.60;32.60;;;;;;7366520;19;20018;-75
2022/07/28 12:58:38;;;;;;;4.45;1.70;;;28.60;32.60;;;;;;7366227;19;20010;-75
2022/07/28 13:01:08;;;;;;;6.97;1.75;;;28.50;32.70;;;;;;7365191;19;20018;-75
2022/07/28 13:03:36;;;;;;;2.67;1.63;;;28.60;32.70;;;;;;7367146;19;20042;-75
2022/07/28 13:06:12;;;;;;;5.85;1.80;;;28.60;33.20;;;;;;7364628;19;20026;-76
2022/07/28 13:08:42;;;;;;;7.45;1.60;;;28.50;32.20;;;;;;7365931;19;20348;-75
2022/07/28 13:11:16;;;;;;;5.80;1.48;;;28.50;32.60;;;;;;7389653;19;20094;-74
2022/07/28 13:13:50;;;;;;;7.57;1.83;;;28.40;33.30;;;;;;7372738;19;20402;-75